»·PEaware :: RSP972 KHND-KSBP

RSP972 :: KHND-KSBP

FLIGHT INFORMATION

Flight Status: Arrived
Operator: Unknown
More flights by this operator :: More flights under this callsign
Pilot: Justin A. (23118)
Aircraft: EMBRAER PHENOM 300
(E55P)
More flights by this aircraft type
Origin: KHND Henderson
United States
Destination: KSBP San Luis Co Regl
United States
More flights between these airports :: More routes between these airports
Route: +PALLY5 HEC PMD FIM RZS
File this flight plan on PilotEdge
Remarks:
Altitude:
(Current/Filed)
28,000ft
Speed:
(Current/Filed)
350kts
Departed: 09-Feb-19 06:01 PM
Arrived: 09-Feb-19 07:12 PM
Distance/Time
Traveled:
272nm/1:11
Distance/Time
To Go:
Arrived

Flight Plot

Page will automatically refresh every two minutes.

Flight plan parsing failed; only flown route is shown


Map Options




Map Legend


Flown Route
Filed Route
Departure Airport
Arrival Airport
Navaid (VOR, NDB)
Fix

Horizontal Profiles

Position Reports

Time Latitude Longitude Heading Altitude Ground
Speed
09-Feb-19 17:39 35.973320 -115.137832 359 2495ft 0kts
09-Feb-19 17:40 35.973322 -115.137832 359 2495ft 0kts
09-Feb-19 17:41 35.973324 -115.137832 359 2495ft 0kts
09-Feb-19 17:42 35.973326 -115.137832 359 2495ft 0kts
09-Feb-19 17:43 35.973328 -115.137832 359 2495ft 0kts
09-Feb-19 17:44 35.973330 -115.137832 359 2495ft 0kts
09-Feb-19 17:45 35.973332 -115.137832 359 2495ft 0kts
09-Feb-19 17:46 35.973334 -115.137832 359 2495ft 0kts
09-Feb-19 17:47 35.973336 -115.137832 359 2495ft 0kts
09-Feb-19 17:48 35.973338 -115.137832 359 2495ft 0kts
09-Feb-19 17:49 35.973340 -115.137832 359 2495ft 0kts
09-Feb-19 17:50 35.973342 -115.137832 359 2495ft 0kts
09-Feb-19 17:51 35.973344 -115.137832 359 2495ft 0kts
09-Feb-19 17:52 35.973346 -115.137832 359 2495ft 0kts
09-Feb-19 17:53 35.973830 -115.137833 359 2495ft 5kts
09-Feb-19 17:54 35.977744 -115.138192 359 2495ft 0kts
09-Feb-19 17:55 35.977747 -115.138192 359 2495ft 0kts
09-Feb-19 17:56 35.977965 -115.137693 90 2495ft 0kts
09-Feb-19 17:57 35.978052 -115.136466 0 2495ft 6kts
09-Feb-19 17:58 35.980164 -115.136428 0 2495ft 2kts
09-Feb-19 17:59 35.980904 -115.136052 88 2495ft 7kts
09-Feb-19 18:00 35.972254 -115.135448 180 2495ft 133kts
09-Feb-19 18:01 35.932941 -115.147029 206 4051ft 252kts
09-Feb-19 18:03 35.856113 -115.161016 176 5686ft 234kts
09-Feb-19 18:04 35.790566 -115.163986 198 6913ft 257kts
09-Feb-19 18:05 35.732884 -115.217633 225 7000ft 268kts
09-Feb-19 18:06 35.673561 -115.296111 227 8330ft 301kts
09-Feb-19 18:07 35.622030 -115.366762 228 10797ft 257kts
09-Feb-19 18:08 35.576120 -115.429931 228 13269ft 235kts
09-Feb-19 18:09 35.533850 -115.488025 228 15767ft 244kts
09-Feb-19 18:10 35.481683 -115.558617 227 18324ft 308kts
09-Feb-19 18:11 35.420027 -115.641078 227 20850ft 341kts
09-Feb-19 18:12 35.354078 -115.729004 227 22879ft 363kts
09-Feb-19 18:13 35.282420 -115.824283 227 23341ft 394kts
09-Feb-19 18:14 35.210466 -115.919692 227 25668ft 369kts
09-Feb-19 18:15 35.142865 -116.009091 227 27875ft 351kts
09-Feb-19 18:16 35.072966 -116.101281 227 28174ft 385kts
09-Feb-19 18:17 34.997093 -116.201072 227 28180ft 414kts
09-Feb-19 18:18 34.916948 -116.306174 227 28179ft 427kts
09-Feb-19 18:19 34.835925 -116.412115 227 28179ft 428kts
09-Feb-19 18:20 34.786568 -116.541026 259 28180ft 428kts
09-Feb-19 18:21 34.771662 -116.684255 264 28178ft 425kts
09-Feb-19 18:21 34.761594 -116.803104 263 28178ft 423kts
09-Feb-19 18:23 34.746414 -116.968369 263 28177ft 413kts
09-Feb-19 18:24 34.733124 -117.103658 263 28177ft 394kts
09-Feb-19 18:24 34.722085 -117.212694 262 28178ft 384kts
09-Feb-19 18:25 34.708935 -117.340262 262 28178ft 378kts
09-Feb-19 18:26 34.695725 -117.466674 262 28178ft 375kts
09-Feb-19 18:28 34.680276 -117.612741 262 28178ft 373kts
09-Feb-19 18:28 34.669114 -117.717196 262 28178ft 372kts
09-Feb-19 18:29 34.655673 -117.841844 262 28178ft 372kts
09-Feb-19 18:30 34.642114 -117.966354 262 28178ft 372kts
09-Feb-19 18:31 34.637686 -118.006738 262 28178ft 372kts
09-Feb-19 18:32 34.637686 -118.006738 262 28178ft 372kts
09-Feb-19 18:33 34.614999 -118.108364 250 28179ft 372kts
09-Feb-19 18:34 34.577652 -118.225560 248 28178ft 372kts
09-Feb-19 18:35 34.538892 -118.341690 247 28178ft 372kts
09-Feb-19 18:36 34.503499 -118.447124 247 28178ft 372kts
09-Feb-19 18:37 34.468442 -118.551295 247 28179ft 372kts
09-Feb-19 18:38 34.428963 -118.668244 247 27794ft 382kts
09-Feb-19 18:39 34.400843 -118.751298 247 26799ft 401kts
09-Feb-19 18:40 34.364222 -118.881018 266 25305ft 406kts
09-Feb-19 18:41 34.376911 -119.010646 281 23805ft 376kts
09-Feb-19 18:42 34.399190 -119.131811 282 22306ft 364kts
09-Feb-19 18:43 34.420736 -119.250996 282 20803ft 360kts
09-Feb-19 18:44 34.439500 -119.358375 281 19444ft 359kts
09-Feb-19 18:45 34.460041 -119.478021 281 17946ft 372kts
09-Feb-19 18:46 34.480797 -119.600128 281 16084ft 346kts
09-Feb-19 18:47 34.497361 -119.698343 281 14074ft 312kts
09-Feb-19 18:48 34.534564 -119.790184 309 11875ft 306kts
09-Feb-19 18:49 34.585739 -119.858264 314 9882ft 283kts
09-Feb-19 18:50 34.632763 -119.915979 315 7880ft 251kts
09-Feb-19 18:51 34.680527 -119.973410 315 6255ft 219kts
09-Feb-19 18:52 34.715296 -120.014984 315 6087ft 173kts
09-Feb-19 18:53 34.744072 -120.049348 315 6118ft 179kts
09-Feb-19 18:54 34.791029 -120.105348 315 6100ft 267kts
09-Feb-19 18:55 34.846579 -120.171704 315 6097ft 288kts
09-Feb-19 18:56 34.904605 -120.241182 315 6096ft 294kts
09-Feb-19 18:57 34.963102 -120.311387 315 6096ft 295kts
09-Feb-19 18:58 35.021766 -120.381950 315 6095ft 296kts
09-Feb-19 18:59 35.080228 -120.452425 315 6095ft 296kts
09-Feb-19 19:00 35.130064 -120.512628 315 5397ft 249kts
09-Feb-19 19:01 35.181246 -120.566293 322 2917ft 243kts
09-Feb-19 19:02 35.219949 -120.610714 306 870ft 135kts
09-Feb-19 19:03 35.244458 -120.653083 305 917ft 195kts
09-Feb-19 19:04 35.256493 -120.698753 234 1792ft 145kts
09-Feb-19 19:05 35.220398 -120.686067 131 2786ft 168kts
09-Feb-19 19:06 35.192714 -120.640066 124 2443ft 197kts
09-Feb-19 19:07 35.162411 -120.584999 102 2111ft 198kts
09-Feb-19 19:08 35.194884 -120.571908 318 1488ft 182kts
09-Feb-19 19:09 35.219026 -120.608999 304 723ft 124kts
09-Feb-19 19:10 35.237083 -120.640560 303 215ft 91kts
09-Feb-19 19:11 35.241471 -120.646905 34 215ft 0kts
09-Feb-19 19:12 35.241045 -120.645658 124 215ft 10kts
09-Feb-19 19:13 35.238195 -120.640645 124 215ft 17kts
09-Feb-19 19:14 35.238277 -120.638607 260 215ft 0kts
09-Feb-19 19:15 35.238272 -120.638656 264 215ft 0kts
09-Feb-19 19:16 35.238272 -120.638656 264 215ft 0kts
09-Feb-19 19:17 35.238272 -120.638656 264 215ft 0kts
09-Feb-19 19:18 35.238272 -120.638656 264 215ft 0kts
09-Feb-19 19:19 35.238272 -120.638656 264 215ft 0kts
09-Feb-19 19:20 35.238272 -120.638656 264 215ft 0kts
09-Feb-19 19:21 35.238272 -120.638656 264 215ft 0kts
09-Feb-19 19:22 35.238272 -120.638656 264 215ft 0kts
09-Feb-19 19:23 35.238272 -120.638656 264 215ft 0kts
09-Feb-19 19:24 35.238272 -120.638656 264 215ft 0kts
09-Feb-19 19:25 35.238272 -120.638656 264 215ft 0kts
09-Feb-19 19:26 35.238272 -120.638656 264 215ft 0kts

Navigation Log

Ident Type
Flight plan parsing failed, navigation log unavailable